Time;durP1;ratioP1;P1;durP2;ratioP2;P2;SDS_P1;SDS_P2;PMS_P1;PMS_P2;Temp;Humidity;BMP_temperature;BMP_pressure;BME280_temperature;BME280_humidity;BME280_pressure;Samples;Min_cycle;Max_cycle;Signal;HPM_P1;HPM_P2
2024/03/25 00:01:23;;;;;;;;;;;;;;;5.04;73.15;93396.91;4170379;28;19925;-65
2024/03/25 00:03:24;;;;;;;;;;;;;;;5.10;72.85;93395.47;4168072;28;19928;-66
2024/03/25 00:05:25;;;;;;;;;;;;;;;5.07;72.99;93388.78;4174598;28;19939;-65
2024/03/25 00:07:26;;;;;;;;;;;;;;;5.09;72.98;93388.63;4173969;28;19925;-67
2024/03/25 00:09:26;;;;;;;;;;;;;;;5.27;72.52;93388.50;4173575;28;19920;-66
2024/03/25 00:11:27;;;;;;;;;;;;;;;5.20;72.05;93390.94;4175448;28;19964;-67
2024/03/25 00:13:28;;;;;;;;;;;;;;;4.91;71.68;93380.97;4167362;28;19952;-65
2024/03/25 00:15:28;;;;;;;;;;;;;;;4.83;72.96;93373.94;4176613;28;19927;-65
2024/03/25 00:17:29;;;;;;;;;;;;;;;4.81;72.67;93360.31;4162551;28;19935;-67
2024/03/25 00:19:31;;;;;;;;;;;;;;;4.76;73.08;93366.97;4166544;28;19928;-66
2024/03/25 00:21:31;;;;;;;;;;;;;;;4.95;73.87;93371.91;4164247;28;19928;-66
2024/03/25 00:23:32;;;;;;;;;;;;;;;4.93;73.30;93366.06;4171889;28;19921;-67
2024/03/25 00:25:33;;;;;;;;;;;;;;;5.05;73.50;93361.38;4174789;28;19986;-68
2024/03/25 00:27:34;;;;;;;;;;;;;;;5.11;72.33;93350.34;4166305;28;19921;-67
2024/03/25 00:29:34;;;;;;;;;;;;;;;5.07;72.85;93349.84;4173948;28;19921;-66
2024/03/25 00:31:35;;;;;;;;;;;;;;;5.23;73.03;93343.91;4167981;28;19929;-66
2024/03/25 00:33:36;;;;;;;;;;;;;;;5.39;72.61;93347.47;4170612;28;19921;-65
2024/03/25 00:35:36;;;;;;;;;;;;;;;5.40;71.47;93346.50;4168512;28;20319;-66
2024/03/25 00:37:37;;;;;;;;;;;;;;;5.44;71.75;93340.00;4170697;28;20415;-66
2024/03/25 00:39:38;;;;;;;;;;;;;;;5.52;72.27;93334.81;4166108;28;20538;-67
2024/03/25 00:41:38;;;;;;;;;;;;;;;5.62;72.22;93332.88;4169490;28;19931;-64
2024/03/25 00:43:39;;;;;;;;;;;;;;;5.51;71.21;93330.63;4171239;28;19933;-64
2024/03/25 00:45:39;;;;;;;;;;;;;;;5.38;72.71;93335.47;4168572;28;20019;-66
2024/03/25 00:47:40;;;;;;;;;;;;;;;5.26;72.54;93342.75;4172885;28;20312;-66
2024/03/25 00:49:40;;;;;;;;;;;;;;;4.99;74.07;93336.88;4171648;28;19920;-67
2024/03/25 00:51:41;;;;;;;;;;;;;;;5.11;74.72;93347.75;4163274;28;19929;-65
2024/03/25 00:53:43;;;;;;;;;;;;;;;5.22;74.34;93346.66;4171999;28;20027;-67
2024/03/25 00:55:44;;;;;;;;;;;;;;;5.23;73.84;93349.09;4177005;28;20405;-66
2024/03/25 00:57:45;;;;;;;;;;;;;;;5.29;73.36;93338.06;4170729;28;19929;-65
2024/03/25 00:59:45;;;;;;;;;;;;;;;5.25;72.93;93348.94;4177353;28;20310;-65
2024/03/25 01:01:46;;;;;;;;;;;;;;;5.29;72.29;93342.44;4164939;28;19921;-66
2024/03/25 01:03:48;;;;;;;;;;;;;;;5.23;72.63;93330.09;4150621;28;19925;-66
2024/03/25 01:05:48;;;;;;;;;;;;;;;5.30;72.83;93324.09;4167598;28;19924;-65
2024/03/25 01:07:49;;;;;;;;;;;;;;;5.35;72.10;93318.41;4170123;28;20035;-65
2024/03/25 01:09:50;;;;;;;;;;;;;;;5.39;72.23;93311.13;4160663;28;19931;-67
2024/03/25 01:11:50;;;;;;;;;;;;;;;5.38;72.04;93302.53;4157989;28;19964;-66
2024/03/25 01:13:51;;;;;;;;;;;;;;;5.42;72.90;93290.84;4174201;28;20018;-66
2024/03/25 01:15:51;;;;;;;;;;;;;;;5.53;72.48;93282.72;4176565;28;19975;-65
2024/03/25 01:17:52;;;;;;;;;;;;;;;5.68;72.27;93282.06;4175812;28;19991;-66
2024/03/25 01:19:53;;;;;;;;;;;;;;;5.77;72.21;93288.88;4171125;28;19990;-66
2024/03/25 01:21:53;;;;;;;;;;;;;;;5.87;71.82;93281.72;4179962;28;19932;-65
2024/03/25 01:23:54;;;;;;;;;;;;;;;5.72;71.32;93284.19;4177102;28;19924;-65
2024/03/25 01:25:54;;;;;;;;;;;;;;;5.24;72.54;93285.78;4161710;28;19925;-66
2024/03/25 01:27:55;;;;;;;;;;;;;;;5.23;73.97;93291.16;4159781;28;20004;-65
2024/03/25 01:29:56;;;;;;;;;;;;;;;5.31;74.47;93297.19;4175977;28;20505;-66
2024/03/25 01:31:58;;;;;;;;;;;;;;;5.26;73.69;93289.03;4170935;28;20015;-67
2024/03/25 01:34:00;;;;;;;;;;;;;;;5.36;74.14;93294.09;4175749;28;19928;-66
2024/03/25 01:36:00;;;;;;;;;;;;;;;5.06;74.17;93298.13;4179349;28;19920;-66
2024/03/25 01:38:02;;;;;;;;;;;;;;;5.06;75.32;93304.13;4177893;28;19924;-65
2024/03/25 01:40:04;;;;;;;;;;;;;;;5.23;75.60;93307.53;4173758;28;19925;-65
2024/03/25 01:42:05;;;;;;;;;;;;;;;5.18;74.69;93311.59;4178367;28;19927;-66
2024/03/25 01:44:05;;;;;;;;;;;;;;;4.89;75.50;93311.06;4178225;28;19921;-65
2024/03/25 01:46:06;;;;;;;;;;;;;;;4.89;76.54;93305.84;4180226;28;20070;-66
2024/03/25 01:48:07;;;;;;;;;;;;;;;4.69;76.89;93307.13;4176987;28;20398;-66
2024/03/25 01:50:07;;;;;;;;;;;;;;;4.53;78.47;93309.66;4177154;28;19927;-65
2024/03/25 01:52:08;;;;;;;;;;;;;;;4.55;77.76;93303.31;4176561;28;19943;-65
2024/03/25 01:54:09;;;;;;;;;;;;;;;4.26;79.11;93309.69;4162358;28;19921;-65
2024/03/25 01:56:10;;;;;;;;;;;;;;;4.18;80.06;93314.03;4153108;28;19920;-63
2024/03/25 01:58:11;;;;;;;;;;;;;;;4.10;80.83;93323.38;4179488;28;20434;-63
2024/03/25 02:00:16;;;;;;;;;;;;;;;3.92;80.76;93327.81;4182218;28;20294;-68
2024/03/25 02:02:17;;;;;;;;;;;;;;;3.90;80.93;93334.94;4179152;28;19947;-66
2024/03/25 02:04:17;;;;;;;;;;;;;;;3.77;80.86;93345.69;4180047;28;19921;-65
2024/03/25 02:06:18;;;;;;;;;;;;;;;3.65;82.04;93347.69;4179184;28;19966;-66
2024/03/25 02:08:19;;;;;;;;;;;;;;;3.61;81.39;93351.53;4175071;28;19925;-65
2024/03/25 02:10:20;;;;;;;;;;;;;;;3.43;80.56;93358.53;4162107;28;19921;-66
2024/03/25 02:12:21;;;;;;;;;;;;;;;3.42;81.79;93344.78;4163159;28;19971;-66
2024/03/25 02:14:22;;;;;;;;;;;;;;;3.10;81.86;93358.22;4163637;28;20349;-65
2024/03/25 02:16:23;;;;;;;;;;;;;;;2.99;82.45;93348.91;4157042;28;19922;-66
2024/03/25 02:18:24;;;;;;;;;;;;;;;3.15;82.32;93343.06;4168864;28;19955;-64
2024/03/25 02:20:26;;;;;;;;;;;;;;;3.04;82.00;93348.47;4151826;28;19925;-66
2024/03/25 02:22:26;;;;;;;;;;;;;;;3.05;81.44;93344.91;4165644;28;19921;-63
2024/03/25 02:24:27;;;;;;;;;;;;;;;3.15;82.21;93332.72;4145307;28;20419;-65
2024/03/25 02:26:28;;;;;;;;;;;;;;;3.38;81.77;93329.69;4163334;28;19920;-66
2024/03/25 02:28:29;;;;;;;;;;;;;;;3.59;81.32;93330.19;4163053;28;20423;-65
2024/03/25 02:30:30;;;;;;;;;;;;;;;3.63;80.15;93331.47;4172894;28;20453;-65
2024/03/25 02:32:31;;;;;;;;;;;;;;;3.86;80.31;93339.59;4178595;28;19924;-66
2024/03/25 02:34:32;;;;;;;;;;;;;;;4.08;80.36;93338.25;4163935;28;19921;-65
2024/03/25 02:36:32;;;;;;;;;;;;;;;4.19;78.88;93339.78;4173648;28;20011;-66
2024/03/25 02:38:33;;;;;;;;;;;;;;;4.30;78.27;93333.50;4175278;28;19960;-64
2024/03/25 02:40:34;;;;;;;;;;;;;;;4.47;77.27;93331.81;4173162;28;19925;-66
2024/03/25 02:42:39;;;;;;;;;;;;;;;4.54;76.76;93329.41;4176899;28;20314;-67
2024/03/25 02:44:43;;;;;;;;;;;;;;;4.59;76.76;93334.97;4159905;28;19929;-66
2024/03/25 02:46:43;;;;;;;;;;;;;;;4.71;76.77;93329.34;4151837;28;20094;-65
2024/03/25 02:48:45;;;;;;;;;;;;;;;4.69;75.85;93326.09;4165675;28;20016;-66
2024/03/25 02:50:46;;;;;;;;;;;;;;;4.79;75.40;93336.31;4169836;28;20039;-65
2024/03/25 02:52:47;;;;;;;;;;;;;;;4.92;75.08;93341.88;4169845;28;20434;-65
2024/03/25 02:54:49;;;;;;;;;;;;;;;4.91;74.52;93355.00;4164330;28;19921;-66
2024/03/25 02:56:49;;;;;;;;;;;;;;;4.99;74.10;93349.84;4169416;28;20263;-65
2024/03/25 02:58:50;;;;;;;;;;;;;;;5.04;73.54;93357.16;4165488;28;19971;-66
2024/03/25 03:00:50;;;;;;;;;;;;;;;4.88;72.76;93361.34;4173484;28;19975;-65
2024/03/25 03:02:51;;;;;;;;;;;;;;;5.00;73.16;93364.44;4176433;28;20375;-65
2024/03/25 03:04:52;;;;;;;;;;;;;;;4.91;72.09;93355.81;4174300;28;20648;-64
2024/03/25 03:06:52;;;;;;;;;;;;;;;4.94;71.77;93359.88;4177448;28;19921;-66
2024/03/25 03:08:53;;;;;;;;;;;;;;;4.97;71.91;93359.59;4165599;28;20439;-67
2024/03/25 03:10:53;;;;;;;;;;;;;;;4.96;71.53;93365.72;4162321;28;19991;-66
2024/03/25 03:12:54;;;;;;;;;;;;;;;4.85;72.19;93363.44;4163224;28;19975;-65
2024/03/25 03:14:54;;;;;;;;;;;;;;;4.81;71.88;93369.91;4174645;28;19975;-63
2024/03/25 03:16:57;;;;;;;;;;;;;;;4.82;71.23;93363.72;4168670;28;19967;-63
2024/03/25 03:18:58;;;;;;;;;;;;;;;4.85;71.66;93358.22;4166205;28;19921;-65
2024/03/25 03:20:59;;;;;;;;;;;;;;;4.97;71.47;93353.56;4173521;28;19991;-65
2024/03/25 03:22:59;;;;;;;;;;;;;;;5.11;72.01;93351.16;4163638;28;20002;-65
2024/03/25 03:25:00;;;;;;;;;;;;;;;5.22;70.79;93360.44;4148415;28;19975;-65
2024/03/25 03:27:00;;;;;;;;;;;;;;;5.23;69.85;93364.66;4155907;28;19921;-66
2024/03/25 03:29:02;;;;;;;;;;;;;;;5.22;69.76;93381.19;4164947;28;19925;-65
2024/03/25 03:31:03;;;;;;;;;;;;;;;5.16;69.78;93384.44;4167028;28;20355;-65
2024/03/25 03:33:04;;;;;;;;;;;;;;;5.16;69.62;93379.25;4177384;28;19924;-64
2024/03/25 03:35:04;;;;;;;;;;;;;;;5.07;69.60;93380.19;4175450;28;19964;-65
2024/03/25 03:37:05;;;;;;;;;;;;;;;5.07;69.65;93381.00;4167241;28;19921;-64
2024/03/25 03:39:08;;;;;;;;;;;;;;;5.07;68.93;93381.00;4173234;28;19928;-65
2024/03/25 03:41:09;;;;;;;;;;;;;;;5.20;69.22;93380.53;4163648;28;19921;-66
2024/03/25 03:43:10;;;;;;;;;;;;;;;5.21;69.43;93366.59;4167927;28;20280;-65
2024/03/25 03:45:12;;;;;;;;;;;;;;;5.19;69.12;93384.13;4171089;28;19921;-64
2024/03/25 03:47:12;;;;;;;;;;;;;;;5.22;68.65;93378.59;4174164;28;19925;-66
2024/03/25 03:49:15;;;;;;;;;;;;;;;5.31;68.81;93385.47;4169465;28;19951;-65
2024/03/25 03:51:16;;;;;;;;;;;;;;;5.33;68.76;93396.50;4178083;28;19930;-66
2024/03/25 03:53:17;;;;;;;;;;;;;;;5.21;68.98;93391.78;4174640;28;19928;-64
2024/03/25 03:55:19;;;;;;;;;;;;;;;5.22;68.35;93385.59;4177302;28;20410;-63
2024/03/25 03:57:19;;;;;;;;;;;;;;;5.23;69.01;93384.63;4174267;28;19928;-65
2024/03/25 03:59:20;;;;;;;;;;;;;;;5.08;68.91;93389.63;4173386;28;20221;-67
2024/03/25 04:01:22;;;;;;;;;;;;;;;5.04;68.51;93399.50;4166983;28;19921;-65
2024/03/25 04:03:22;;;;;;;;;;;;;;;5.06;68.83;93410.53;4175257;28;19954;-65
2024/03/25 04:05:23;;;;;;;;;;;;;;;4.96;68.39;93424.59;4175594;28;19932;-65
2024/03/25 04:07:26;;;;;;;;;;;;;;;5.09;68.86;93430.97;4172160;28;19933;-66
2024/03/25 04:09:29;;;;;;;;;;;;;;;5.07;68.09;93416.53;4170994;28;20249;-64
2024/03/25 04:11:30;;;;;;;;;;;;;;;5.07;68.85;93419.13;4172422;28;19921;-67
2024/03/25 04:13:30;;;;;;;;;;;;;;;5.17;68.39;93425.00;4173031;28;19995;-63
2024/03/25 04:15:34;;;;;;;;;;;;;;;5.07;68.03;93419.13;4168734;28;20408;-68
2024/03/25 04:17:35;;;;;;;;;;;;;;;5.12;68.65;93422.09;4166865;28;20371;-65
2024/03/25 04:19:35;;;;;;;;;;;;;;;5.03;67.90;93417.81;4170320;28;19929;-65
2024/03/25 04:21:36;;;;;;;;;;;;;;;5.02;68.24;93424.78;4172816;28;20029;-65
2024/03/25 04:23:37;;;;;;;;;;;;;;;5.12;68.14;93420.28;4170305;28;19952;-65
2024/03/25 04:25:38;;;;;;;;;;;;;;;5.16;68.23;93438.94;4171432;28;19920;-66
2024/03/25 04:27:38;;;;;;;;;;;;;;;5.16;67.93;93428.56;4170702;28;19921;-65
2024/03/25 04:29:39;;;;;;;;;;;;;;;5.11;67.35;93438.63;4169982;28;19921;-67
2024/03/25 04:31:39;;;;;;;;;;;;;;;5.09;68.34;93443.16;4173433;28;19927;-65
2024/03/25 04:33:41;;;;;;;;;;;;;;;5.20;68.02;93444.66;4177316;28;19921;-67
2024/03/25 04:35:42;;;;;;;;;;;;;;;5.03;68.09;93449.75;4172621;28;20295;-67
2024/03/25 04:37:43;;;;;;;;;;;;;;;5.07;67.78;93464.06;4175359;28;19924;-65
2024/03/25 04:39:44;;;;;;;;;;;;;;;5.15;67.25;93468.50;4163833;28;20518;-67
2024/03/25 04:41:45;;;;;;;;;;;;;;;5.17;67.68;93478.72;4163154;28;19921;-66
2024/03/25 04:43:46;;;;;;;;;;;;;;;5.12;68.06;93479.19;4166415;28;20095;-66
2024/03/25 04:45:47;;;;;;;;;;;;;;;5.10;67.74;93478.53;4164175;28;20050;-66
2024/03/25 04:47:47;;;;;;;;;;;;;;;5.15;67.62;93507.44;4155510;28;19965;-67
2024/03/25 04:49:48;;;;;;;;;;;;;;;5.22;67.17;93485.06;4171407;28;19925;-66
2024/03/25 04:51:51;;;;;;;;;;;;;;;5.26;67.04;93480.38;4164255;28;19944;-65
2024/03/25 04:53:53;;;;;;;;;;;;;;;5.23;66.77;93489.28;4169788;28;19963;-66
2024/03/25 04:55:54;;;;;;;;;;;;;;;5.13;67.04;93493.78;4171953;28;19925;-66
2024/03/25 04:57:55;;;;;;;;;;;;;;;5.18;66.62;93494.13;4161023;28;19921;-67
2024/03/25 04:59:55;;;;;;;;;;;;;;;5.18;66.59;93506.28;4168587;28;19929;-65
2024/03/25 05:01:56;;;;;;;;;;;;;;;4.85;67.40;93491.38;4169319;28;20373;-70
2024/03/25 05:03:56;;;;;;;;;;;;;;;4.88;67.69;93498.03;4170357;28;19924;-65
2024/03/25 05:05:58;;;;;;;;;;;;;;;4.95;67.58;93493.88;4176844;28;19920;-67
2024/03/25 05:07:58;;;;;;;;;;;;;;;5.02;66.28;93488.88;4171769;28;20934;-65
2024/03/25 05:09:59;;;;;;;;;;;;;;;5.10;66.55;93500.13;4154183;28;19921;-64
2024/03/25 05:12:00;;;;;;;;;;;;;;;5.01;67.37;93490.66;4173741;28;19921;-68
2024/03/25 05:14:00;;;;;;;;;;;;;;;5.07;67.16;93494.41;4171869;28;20446;-69
2024/03/25 05:16:01;;;;;;;;;;;;;;;5.06;66.39;93498.78;4172968;28;19921;-68
2024/03/25 05:18:02;;;;;;;;;;;;;;;5.14;66.12;93495.41;4174138;28;20340;-69
2024/03/25 05:20:04;;;;;;;;;;;;;;;5.14;66.87;93500.59;4167550;28;19921;-68
2024/03/25 05:22:05;;;;;;;;;;;;;;;5.23;66.78;93502.28;4173402;28;20396;-67
2024/03/25 05:24:06;;;;;;;;;;;;;;;5.16;65.94;93503.84;4161682;28;19941;-67
2024/03/25 05:26:06;;;;;;;;;;;;;;;5.20;65.68;93514.75;4153102;28;19951;-68
2024/03/25 05:28:07;;;;;;;;;;;;;;;5.15;65.73;93515.22;4171637;28;19928;-66
2024/03/25 05:30:08;;;;;;;;;;;;;;;5.24;66.22;93503.88;4172675;28;19921;-66
2024/03/25 05:32:08;;;;;;;;;;;;;;;5.25;65.73;93522.91;4173521;28;20003;-65
2024/03/25 05:34:09;;;;;;;;;;;;;;;5.25;65.39;93517.72;4175203;28;20315;-70
2024/03/25 05:36:10;;;;;;;;;;;;;;;5.37;65.17;93526.03;4175584;28;19928;-69
2024/03/25 05:38:10;;;;;;;;;;;;;;;5.26;65.26;93522.72;4168549;28;20020;-67
2024/03/25 05:40:11;;;;;;;;;;;;;;;5.36;64.63;93520.03;4163664;28;19936;-68
2024/03/25 05:42:13;;;;;;;;;;;;;;;5.25;65.16;93525.50;4147284;28;19968;-67
2024/03/25 05:44:13;;;;;;;;;;;;;;;5.27;65.31;93529.56;4169126;28;20454;-68
2024/03/25 05:46:14;;;;;;;;;;;;;;;5.27;64.68;93536.50;4165067;28;19979;-65
2024/03/25 05:48:15;;;;;;;;;;;;;;;5.25;64.97;93541.88;4172244;28;19974;-67
2024/03/25 05:50:15;;;;;;;;;;;;;;;5.33;65.52;93547.13;4173961;28;19924;-68
2024/03/25 05:52:16;;;;;;;;;;;;;;;5.46;64.90;93549.28;4173186;28;19948;-68
2024/03/25 05:54:16;;;;;;;;;;;;;;;5.54;65.10;93551.09;4166413;28;20319;-67
2024/03/25 05:56:17;;;;;;;;;;;;;;;5.71;64.02;93552.78;4170416;28;19921;-68
2024/03/25 05:58:18;;;;;;;;;;;;;;;5.67;63.28;93556.66;4156561;28;19951;-68
2024/03/25 06:00:20;;;;;;;;;;;;;;;5.62;63.26;93561.53;4152377;28;20084;-68
2024/03/25 06:02:21;;;;;;;;;;;;;;;5.52;63.48;93561.63;4173058;28;19920;-67
2024/03/25 06:04:21;;;;;;;;;;;;;;;5.36;64.17;93553.78;4178069;28;20368;-66
2024/03/25 06:06:22;;;;;;;;;;;;;;;5.42;64.13;93560.13;4174900;28;20330;-66
2024/03/25 06:08:25;;;;;;;;;;;;;;;5.39;64.62;93563.03;4177735;28;20035;-68
2024/03/25 06:10:26;;;;;;;;;;;;;;;5.39;64.64;93563.03;4159963;28;20324;-68
2024/03/25 06:12:26;;;;;;;;;;;;;;;5.36;65.06;93571.16;4178435;28;19967;-68
2024/03/25 06:14:27;;;;;;;;;;;;;;;5.37;64.07;93583.16;4167877;28;19921;-69
2024/03/25 06:16:28;;;;;;;;;;;;;;;5.27;64.58;93575.47;4169986;28;20011;-66
2024/03/25 06:18:28;;;;;;;;;;;;;;;5.44;64.76;93585.00;4174118;28;19920;-68
2024/03/25 06:20:29;;;;;;;;;;;;;;;5.24;64.61;93584.38;4177894;28;19928;-68
2024/03/25 06:22:29;;;;;;;;;;;;;;;5.33;63.93;93591.28;4175709;28;19921;-68
2024/03/25 06:24:30;;;;;;;;;;;;;;;5.50;63.80;93588.72;4167314;28;20012;-68
2024/03/25 06:26:31;;;;;;;;;;;;;;;5.63;63.32;93586.50;4171715;28;20043;-69
2024/03/25 06:28:31;;;;;;;;;;;;;;;5.68;63.52;93592.06;4179335;28;20275;-70
2024/03/25 06:35:12;;;;;;;;;;;;;;;5.88;61.67;93608.22;4167849;28;20350;-67
2024/03/25 06:37:13;;;;;;;;;;;;;;;6.07;61.70;93596.78;4167825;28;19966;-68
2024/03/25 06:39:14;;;;;;;;;;;;;;;5.97;61.12;93606.50;4176692;28;20370;-69
2024/03/25 06:41:14;;;;;;;;;;;;;;;5.96;61.68;93602.28;4178982;28;20015;-68
2024/03/25 06:43:16;;;;;;;;;;;;;;;5.79;61.67;93603.16;4171937;28;19925;-73
2024/03/25 06:45:17;;;;;;;;;;;;;;;6.02;61.79;93600.81;4176801;28;19920;-66
2024/03/25 06:47:18;;;;;;;;;;;;;;;6.19;61.60;93609.47;4170292;28;20353;-70
2024/03/25 06:49:18;;;;;;;;;;;;;;;6.41;61.12;93619.28;4174575;28;19925;-68
2024/03/25 06:51:19;;;;;;;;;;;;;;;6.44;60.82;93621.56;4170311;28;20010;-70
2024/03/25 06:53:19;;;;;;;;;;;;;;;6.37;60.66;93620.59;4159591;28;20437;-68
2024/03/25 06:55:22;;;;;;;;;;;;;;;6.34;61.04;93623.47;4172151;28;20000;-70
2024/03/25 06:57:23;;;;;;;;;;;;;;;6.08;61.75;93628.78;4173265;28;19921;-66
2024/03/25 06:59:23;;;;;;;;;;;;;;;6.10;60.95;93632.84;4177303;28;19922;-66
2024/03/25 07:01:24;;;;;;;;;;;;;;;6.16;61.35;93636.63;4174281;28;19924;-67
2024/03/25 07:03:24;;;;;;;;;;;;;;;6.25;61.39;93629.66;4175379;28;19928;-66
2024/03/25 07:05:25;;;;;;;;;;;;;;;6.34;61.27;93631.28;4170274;28;19982;-68
2024/03/25 07:07:26;;;;;;;;;;;;;;;6.47;60.95;93631.63;4176738;28;20407;-67
2024/03/25 07:09:27;;;;;;;;;;;;;;;6.38;60.57;93635.19;4160036;28;20400;-69
2024/03/25 07:11:27;;;;;;;;;;;;;;;6.56;60.42;93638.50;4176104;28;20398;-70
2024/03/25 07:13:28;;;;;;;;;;;;;;;6.02;60.65;93638.03;4166774;28;19920;-66
2024/03/25 07:15:29;;;;;;;;;;;;;;;6.08;60.86;93644.38;4173130;28;19921;-68
2024/03/25 07:17:29;;;;;;;;;;;;;;;6.17;60.35;93648.63;4158910;28;19928;-67
2024/03/25 07:19:30;;;;;;;;;;;;;;;6.22;59.99;93653.38;4161776;28;19921;-68
2024/03/25 07:21:31;;;;;;;;;;;;;;;6.30;59.68;93648.19;4168723;28;19928;-68
2024/03/25 07:23:32;;;;;;;;;;;;;;;5.61;62.43;93652.59;4173464;28;19920;-68
2024/03/25 07:25:32;;;;;;;;;;;;;;;6.00;61.96;93662.56;4154879;28;19921;-69
2024/03/25 07:27:33;;;;;;;;;;;;;;;6.20;60.69;93656.13;4159464;28;19921;-68
2024/03/25 07:29:34;;;;;;;;;;;;;;;6.48;59.91;93648.06;4177131;28;19987;-66
2024/03/25 07:31:34;;;;;;;;;;;;;;;6.65;59.37;93644.53;4174933;28;19936;-67
2024/03/25 07:33:35;;;;;;;;;;;;;;;6.64;59.06;93655.91;4173327;28;19936;-66
2024/03/25 07:35:36;;;;;;;;;;;;;;;6.76;58.94;93661.63;4150887;28;20384;-67
2024/03/25 07:37:36;;;;;;;;;;;;;;;6.74;58.02;93645.34;4170136;28;19921;-68
2024/03/25 07:39:38;;;;;;;;;;;;;;;7.01;57.93;93653.81;4162332;28;19921;-69
2024/03/25 07:41:38;;;;;;;;;;;;;;;7.03;57.53;93657.06;4165502;28;20388;-65
2024/03/25 07:43:39;;;;;;;;;;;;;;;7.06;56.91;93654.97;4174495;28;19921;-69
2024/03/25 07:45:40;;;;;;;;;;;;;;;7.16;56.77;93642.59;4174584;28;19981;-68
2024/03/25 07:47:41;;;;;;;;;;;;;;;7.21;57.07;93659.50;4174244;28;19943;-69
2024/03/25 07:49:42;;;;;;;;;;;;;;;7.24;56.79;93661.78;4154758;28;19921;-68
2024/03/25 07:51:43;;;;;;;;;;;;;;;7.35;56.37;93654.44;4169645;28;20426;-68
2024/03/25 07:53:44;;;;;;;;;;;;;;;7.20;57.53;93656.06;4151086;28;20065;-69
2024/03/25 07:55:46;;;;;;;;;;;;;;;7.45;56.68;93659.47;4170025;28;20015;-67
2024/03/25 07:57:46;;;;;;;;;;;;;;;7.43;56.54;93673.66;4172560;28;20263;-67
2024/03/25 07:59:47;;;;;;;;;;;;;;;7.55;56.27;93659.28;4165602;28;19924;-70
2024/03/25 08:01:47;;;;;;;;;;;;;;;7.49;55.93;93667.78;4170449;28;20044;-68
2024/03/25 08:03:48;;;;;;;;;;;;;;;7.60;56.96;93657.00;4166456;28;19924;-68
2024/03/25 08:05:49;;;;;;;;;;;;;;;7.71;56.10;93667.06;4168959;28;19920;-69
2024/03/25 08:07:50;;;;;;;;;;;;;;;7.78;55.82;93654.19;4175925;28;19929;-70
2024/03/25 08:09:51;;;;;;;;;;;;;;;8.16;56.00;93657.00;4176803;28;19925;-67
2024/03/25 08:11:52;;;;;;;;;;;;;;;7.99;56.00;93664.88;4174820;28;19927;-67
2024/03/25 08:13:52;;;;;;;;;;;;;;;8.21;55.13;93659.88;4173390;28;19979;-69
2024/03/25 08:15:53;;;;;;;;;;;;;;;8.04;54.95;93656.53;4173208;28;19979;-70
2024/03/25 08:17:53;;;;;;;;;;;;;;;8.15;54.28;93674.44;4173607;28;20364;-70
2024/03/25 08:19:54;;;;;;;;;;;;;;;8.05;54.64;93670.41;4153353;28;20338;-69
2024/03/25 08:21:55;;;;;;;;;;;;;;;7.69;55.97;93673.44;4172804;28;19948;-70
2024/03/25 08:23:55;;;;;;;;;;;;;;;7.64;56.08;93666.13;4167152;28;19928;-70
2024/03/25 08:25:56;;;;;;;;;;;;;;;7.72;56.28;93683.53;4175183;28;20303;-68
2024/03/25 08:27:56;;;;;;;;;;;;;;;7.79;55.94;93684.50;4173987;28;20024;-70
2024/03/25 08:29:57;;;;;;;;;;;;;;;7.86;55.81;93682.84;4165036;28;20391;-71
2024/03/25 08:31:58;;;;;;;;;;;;;;;7.83;55.30;93687.56;4174618;28;19967;-70
2024/03/25 08:33:58;;;;;;;;;;;;;;;7.78;54.42;93681.06;4169546;28;19960;-69
2024/03/25 08:35:59;;;;;;;;;;;;;;;7.70;55.39;93694.13;4170553;28;19925;-70
2024/03/25 08:38:00;;;;;;;;;;;;;;;7.99;54.69;93690.16;4171557;28;20324;-68
2024/03/25 08:40:01;;;;;;;;;;;;;;;8.24;53.80;93700.47;4174953;28;19970;-66
2024/03/25 08:42:01;;;;;;;;;;;;;;;8.37;53.73;93695.56;4173867;28;20461;-70
2024/03/25 08:44:02;;;;;;;;;;;;;;;8.48;53.25;93695.19;4171341;28;20310;-67
2024/03/25 08:46:04;;;;;;;;;;;;;;;8.43;53.23;93700.09;4175238;28;20358;-66
2024/03/25 08:48:04;;;;;;;;;;;;;;;8.27;53.41;93700.16;4175454;28;19924;-67
2024/03/25 08:50:05;;;;;;;;;;;;;;;8.35;53.17;93697.53;4176695;28;19920;-69
2024/03/25 08:52:06;;;;;;;;;;;;;;;8.52;53.08;93696.50;4174552;28;20479;-70
2024/03/25 08:54:06;;;;;;;;;;;;;;;8.58;52.52;93693.19;4163048;28;20066;-67
2024/03/25 08:56:08;;;;;;;;;;;;;;;8.76;53.06;93695.53;4169185;28;19921;-68
2024/03/25 08:58:08;;;;;;;;;;;;;;;8.15;53.72;93703.16;4167282;28;20023;-69
2024/03/25 09:00:10;;;;;;;;;;;;;;;8.37;53.96;93706.00;4173289;28;20387;-70
2024/03/25 09:02:11;;;;;;;;;;;;;;;7.76;55.17;93703.06;4172610;28;20296;-67
2024/03/25 09:04:11;;;;;;;;;;;;;;;7.61;55.61;93705.53;4166524;28;19928;-71
2024/03/25 09:06:12;;;;;;;;;;;;;;;7.98;55.07;93706.78;4169904;28;20007;-67
2024/03/25 09:08:13;;;;;;;;;;;;;;;8.01;52.80;93701.22;4169166;28;20412;-69
2024/03/25 09:12:32;;;;;;;;;;;;;;;8.68;51.60;93700.78;4173791;28;20368;-68
2024/03/25 09:14:33;;;;;;;;;;;;;;;8.62;51.92;93709.31;4167258;28;20010;-68
2024/03/25 09:16:34;;;;;;;;;;;;;;;8.16;52.86;93724.81;4168303;28;20454;-68
2024/03/25 09:18:35;;;;;;;;;;;;;;;8.19;51.70;93717.47;4175775;28;19925;-65
2024/03/25 09:20:36;;;;;;;;;;;;;;;8.03;52.52;93729.75;4176766;28;19948;-68
2024/03/25 09:22:36;;;;;;;;;;;;;;;7.94;52.92;93719.34;4166435;28;20284;-68
2024/03/25 09:24:37;;;;;;;;;;;;;;;8.11;52.87;93717.50;4162309;28;20024;-68
2024/03/25 09:26:38;;;;;;;;;;;;;;;8.11;53.02;93719.28;4171241;28;20018;-69
2024/03/25 09:28:39;;;;;;;;;;;;;;;8.09;53.28;93718.66;4168460;28;20372;-68
2024/03/25 09:30:40;;;;;;;;;;;;;;;8.07;52.27;93724.03;4167792;28;19921;-67
2024/03/25 09:32:42;;;;;;;;;;;;;;;8.22;53.31;93729.38;4161806;28;20001;-69
2024/03/25 09:34:43;;;;;;;;;;;;;;;8.33;52.28;93731.59;4170673;28;19921;-69
2024/03/25 09:36:44;;;;;;;;;;;;;;;7.79;53.47;93729.63;4179409;28;19920;-69
2024/03/25 09:38:45;;;;;;;;;;;;;;;7.30;54.92;93736.69;4172901;28;19929;-70
2024/03/25 09:40:45;;;;;;;;;;;;;;;7.44;54.67;93719.56;4172183;28;20389;-70
2024/03/25 09:42:49;;;;;;;;;;;;;;;7.32;54.75;93732.94;4174691;28;19920;-67
2024/03/25 09:44:50;;;;;;;;;;;;;;;7.46;54.65;93717.59;4162853;28;19928;-68
2024/03/25 09:46:51;;;;;;;;;;;;;;;7.65;54.40;93713.84;4159612;28;20013;-69
2024/03/25 09:48:52;;;;;;;;;;;;;;;7.78;53.59;93717.56;4173020;28;19925;-67
2024/03/25 09:50:52;;;;;;;;;;;;;;;7.92;53.15;93708.25;4160464;28;19928;-67
2024/03/25 09:52:55;;;;;;;;;;;;;;;8.10;53.66;93721.06;4170658;28;19975;-68
2024/03/25 09:54:56;;;;;;;;;;;;;;;7.93;53.36;93724.72;4158931;28;20443;-69
2024/03/25 09:56:56;;;;;;;;;;;;;;;7.50;54.25;93713.69;4162674;28;19921;-67
2024/03/25 09:58:57;;;;;;;;;;;;;;;7.66;54.17;93729.34;4180143;28;20317;-70
2024/03/25 10:00:58;;;;;;;;;;;;;;;7.88;53.06;93738.25;4161483;28;19944;-70
2024/03/25 10:02:58;;;;;;;;;;;;;;;7.90;52.86;93723.25;4140818;28;20013;-70
2024/03/25 10:04:59;;;;;;;;;;;;;;;7.96;53.11;93719.19;4167432;28;20060;-68
2024/03/25 10:06:59;;;;;;;;;;;;;;;8.00;51.55;93723.06;4176510;28;20280;-68
2024/03/25 10:09:01;;;;;;;;;;;;;;;7.94;52.16;93737.59;4176145;28;19921;-68
2024/03/25 10:11:02;;;;;;;;;;;;;;;7.90;51.52;93731.09;4176945;28;19921;-69
2024/03/25 10:13:04;;;;;;;;;;;;;;;8.07;50.95;93715.41;4170374;28;19920;-68
2024/03/25 10:15:14;;;;;;;;;;;;;;;8.17;51.68;93727.28;4169414;28;19925;-69
2024/03/25 10:17:15;;;;;;;;;;;;;;;8.35;51.50;93734.88;4177309;28;19925;-69
2024/03/25 10:19:16;;;;;;;;;;;;;;;8.09;52.61;93740.34;4161387;28;20022;-67
2024/03/25 10:21:19;;;;;;;;;;;;;;;7.74;52.63;93726.72;4173599;28;19927;-68
2024/03/25 10:23:25;;;;;;;;;;;;;;;7.88;52.48;93737.44;4171659;28;19933;-67
2024/03/25 10:25:27;;;;;;;;;;;;;;;7.97;51.31;93744.25;4176585;28;19921;-67
2024/03/25 10:27:28;;;;;;;;;;;;;;;8.14;50.85;93718.97;4177101;28;19928;-70
2024/03/25 10:29:29;;;;;;;;;;;;;;;8.22;50.65;93724.16;4179167;28;19920;-68
2024/03/25 10:31:30;;;;;;;;;;;;;;;8.04;49.15;93732.19;4174669;28;19920;-70
2024/03/25 10:33:33;;;;;;;;;;;;;;;8.09;48.96;93724.69;4169562;28;19967;-68
2024/03/25 10:35:34;;;;;;;;;;;;;;;7.95;49.33;93728.78;4166196;28;19921;-70
2024/03/25 10:37:35;;;;;;;;;;;;;;;8.18;48.49;93734.09;4173583;28;19937;-71
2024/03/25 10:39:39;;;;;;;;;;;;;;;8.35;48.10;93739.28;4171201;28;20024;-70
2024/03/25 10:41:39;;;;;;;;;;;;;;;8.47;47.17;93731.91;4173834;28;19921;-70
2024/03/25 10:43:41;;;;;;;;;;;;;;;8.52;47.48;93737.44;4168397;28;20322;-68
2024/03/25 10:45:42;;;;;;;;;;;;;;;8.28;48.03;93730.47;4172437;28;19921;-70